sensor_id;sensor_type;location;lat;lon;timestamp;temperature;humidity
14585;DHT22;7379;51.506;11.876;2024-01-15T00:00:17;2.50;78.60
14585;DHT22;7379;51.506;11.876;2024-01-15T00:02:45;2.50;78.60
14585;DHT22;7379;51.506;11.876;2024-01-15T00:05:12;2.50;78.60
14585;DHT22;7379;51.506;11.876;2024-01-15T00:07:38;2.50;78.60
14585;DHT22;7379;51.506;11.876;2024-01-15T00:10:06;2.50;78.50
14585;DHT22;7379;51.506;11.876;2024-01-15T00:12:32;2.50;78.50
14585;DHT22;7379;51.506;11.876;2024-01-15T00:14:59;2.50;78.50
14585;DHT22;7379;51.506;11.876;2024-01-15T00:17:26;2.50;78.40
14585;DHT22;7379;51.506;11.876;2024-01-15T00:19:54;2.50;78.40
14585;DHT22;7379;51.506;11.876;2024-01-15T00:22:21;2.50;78.40
14585;DHT22;7379;51.506;11.876;2024-01-15T00:24:48;2.50;78.40
14585;DHT22;7379;51.506;11.876;2024-01-15T00:27:14;2.50;78.40
14585;DHT22;7379;51.506;11.876;2024-01-15T00:29:41;2.50;78.40
14585;DHT22;7379;51.506;11.876;2024-01-15T00:32:08;2.50;78.50
14585;DHT22;7379;51.506;11.876;2024-01-15T00:34:34;2.50;78.40
14585;DHT22;7379;51.506;11.876;2024-01-15T00:37:03;2.50;78.40
14585;DHT22;7379;51.506;11.876;2024-01-15T00:39:32;2.50;78.40
14585;DHT22;7379;51.506;11.876;2024-01-15T00:41:59;2.50;78.40
14585;DHT22;7379;51.506;11.876;2024-01-15T00:44:26;2.50;78.40
14585;DHT22;7379;51.506;11.876;2024-01-15T00:46:52;2.50;78.40
14585;DHT22;7379;51.506;11.876;2024-01-15T00:49:19;2.50;78.40
14585;DHT22;7379;51.506;11.876;2024-01-15T00:51:46;2.50;78.30
14585;DHT22;7379;51.506;11.876;2024-01-15T00:54:15;2.50;79.00
14585;DHT22;7379;51.506;11.876;2024-01-15T00:56:41;2.50;78.30
14585;DHT22;7379;51.506;11.876;2024-01-15T00:59:08;2.50;78.20
14585;DHT22;7379;51.506;11.876;2024-01-15T01:01:36;2.50;78.20
14585;DHT22;7379;51.506;11.876;2024-01-15T01:04:03;2.50;78.20
14585;DHT22;7379;51.506;11.876;2024-01-15T01:06:30;2.50;78.30
14585;DHT22;7379;51.506;11.876;2024-01-15T01:08:57;2.50;78.20
14585;DHT22;7379;51.506;11.876;2024-01-15T01:11:25;2.50;78.20
14585;DHT22;7379;51.506;11.876;2024-01-15T01:13:52;2.50;78.20
14585;DHT22;7379;51.506;11.876;2024-01-15T01:16:18;2.50;78.20
14585;DHT22;7379;51.506;11.876;2024-01-15T01:18:45;2.50;78.20
14585;DHT22;7379;51.506;11.876;2024-01-15T01:21:12;2.40;78.10
14585;DHT22;7379;51.506;11.876;2024-01-15T01:23:38;2.50;78.30
14585;DHT22;7379;51.506;11.876;2024-01-15T01:26:05;2.50;78.20
14585;DHT22;7379;51.506;11.876;2024-01-15T01:28:33;2.40;78.10
14585;DHT22;7379;51.506;11.876;2024-01-15T01:31:00;2.40;78.10
14585;DHT22;7379;51.506;11.876;2024-01-15T01:33:27;2.50;78.20
14585;DHT22;7379;51.506;11.876;2024-01-15T01:35:54;2.50;78.10
14585;DHT22;7379;51.506;11.876;2024-01-15T01:38:21;2.40;78.00
14585;DHT22;7379;51.506;11.876;2024-01-15T01:40:48;2.50;78.10
14585;DHT22;7379;51.506;11.876;2024-01-15T01:43:15;2.50;78.00
14585;DHT22;7379;51.506;11.876;2024-01-15T01:45:43;2.50;78.00
14585;DHT22;7379;51.506;11.876;2024-01-15T01:48:10;2.40;77.80
14585;DHT22;7379;51.506;11.876;2024-01-15T01:50:37;2.40;77.90
14585;DHT22;7379;51.506;11.876;2024-01-15T01:53:04;2.40;77.80
14585;DHT22;7379;51.506;11.876;2024-01-15T01:55:31;2.40;77.80
14585;DHT22;7379;51.506;11.876;2024-01-15T01:57:59;2.40;77.80
14585;DHT22;7379;51.506;11.876;2024-01-15T02:00:26;2.40;77.90
14585;DHT22;7379;51.506;11.876;2024-01-15T02:02:55;2.40;77.80
14585;DHT22;7379;51.506;11.876;2024-01-15T02:05:22;2.40;77.80
14585;DHT22;7379;51.506;11.876;2024-01-15T02:07:49;2.40;77.90
14585;DHT22;7379;51.506;11.876;2024-01-15T02:10:16;2.40;77.80
14585;DHT22;7379;51.506;11.876;2024-01-15T02:12:43;2.40;77.90
14585;DHT22;7379;51.506;11.876;2024-01-15T02:15:11;2.40;77.90
14585;DHT22;7379;51.506;11.876;2024-01-15T02:17:57;2.40;77.90
14585;DHT22;7379;51.506;11.876;2024-01-15T02:20:24;2.40;77.90
14585;DHT22;7379;51.506;11.876;2024-01-15T02:22:51;2.40;77.90
14585;DHT22;7379;51.506;11.876;2024-01-15T02:25:19;2.40;77.90
14585;DHT22;7379;51.506;11.876;2024-01-15T02:27:47;2.40;77.90
14585;DHT22;7379;51.506;11.876;2024-01-15T02:30:14;2.40;78.00
14585;DHT22;7379;51.506;11.876;2024-01-15T02:32:42;2.40;78.00
14585;DHT22;7379;51.506;11.876;2024-01-15T02:35:08;2.40;78.00
14585;DHT22;7379;51.506;11.876;2024-01-15T02:37:36;2.40;78.00
14585;DHT22;7379;51.506;11.876;2024-01-15T02:40:03;2.40;77.90
14585;DHT22;7379;51.506;11.876;2024-01-15T02:42:31;2.40;77.80
14585;DHT22;7379;51.506;11.876;2024-01-15T02:44:58;2.30;77.80
14585;DHT22;7379;51.506;11.876;2024-01-15T02:47:25;2.30;77.80
14585;DHT22;7379;51.506;11.876;2024-01-15T02:49:51;2.30;77.80
14585;DHT22;7379;51.506;11.876;2024-01-15T02:52:18;2.30;77.80
14585;DHT22;7379;51.506;11.876;2024-01-15T02:54:45;2.30;77.80
14585;DHT22;7379;51.506;11.876;2024-01-15T02:57:12;2.30;77.80
14585;DHT22;7379;51.506;11.876;2024-01-15T02:59:40;2.30;77.90
14585;DHT22;7379;51.506;11.876;2024-01-15T03:02:07;2.30;77.80
14585;DHT22;7379;51.506;11.876;2024-01-15T03:04:33;2.30;77.80
14585;DHT22;7379;51.506;11.876;2024-01-15T03:07:00;2.30;77.90
14585;DHT22;7379;51.506;11.876;2024-01-15T03:09:27;2.30;77.90
14585;DHT22;7379;51.506;11.876;2024-01-15T03:11:54;2.30;77.90
14585;DHT22;7379;51.506;11.876;2024-01-15T03:14:20;2.30;77.90
14585;DHT22;7379;51.506;11.876;2024-01-15T03:16:51;2.30;77.90
14585;DHT22;7379;51.506;11.876;2024-01-15T03:19:18;2.30;77.90
14585;DHT22;7379;51.506;11.876;2024-01-15T03:21:44;2.30;77.90
14585;DHT22;7379;51.506;11.876;2024-01-15T03:24:11;2.30;77.90
14585;DHT22;7379;51.506;11.876;2024-01-15T03:26:38;2.30;77.90
14585;DHT22;7379;51.506;11.876;2024-01-15T03:29:05;2.20;77.80
14585;DHT22;7379;51.506;11.876;2024-01-15T03:31:32;2.20;77.80
14585;DHT22;7379;51.506;11.876;2024-01-15T03:34:01;2.20;77.80
14585;DHT22;7379;51.506;11.876;2024-01-15T03:36:27;2.20;77.80
14585;DHT22;7379;51.506;11.876;2024-01-15T03:38:54;2.20;77.90
14585;DHT22;7379;51.506;11.876;2024-01-15T03:41:21;2.20;77.80
14585;DHT22;7379;51.506;11.876;2024-01-15T03:43:47;2.30;77.90
14585;DHT22;7379;51.506;11.876;2024-01-15T03:46:13;2.20;77.80
14585;DHT22;7379;51.506;11.876;2024-01-15T03:48:40;2.20;77.90
14585;DHT22;7379;51.506;11.876;2024-01-15T03:51:08;2.20;77.90
14585;DHT22;7379;51.506;11.876;2024-01-15T03:53:36;2.20;77.90
14585;DHT22;7379;51.506;11.876;2024-01-15T03:56:03;2.20;77.80
14585;DHT22;7379;51.506;11.876;2024-01-15T03:58:30;2.20;77.80
14585;DHT22;7379;51.506;11.876;2024-01-15T04:00:56;2.20;77.80
14585;DHT22;7379;51.506;11.876;2024-01-15T04:03:23;2.20;77.90
14585;DHT22;7379;51.506;11.876;2024-01-15T04:05:50;2.20;77.80
14585;DHT22;7379;51.506;11.876;2024-01-15T04:08:18;2.20;77.80
14585;DHT22;7379;51.506;11.876;2024-01-15T04:10:45;2.20;77.80
14585;DHT22;7379;51.506;11.876;2024-01-15T04:13:12;2.20;78.50
14585;DHT22;7379;51.506;11.876;2024-01-15T04:15:38;2.20;77.80
14585;DHT22;7379;51.506;11.876;2024-01-15T04:18:06;2.20;77.80
14585;DHT22;7379;51.506;11.876;2024-01-15T04:20:33;2.20;77.80
14585;DHT22;7379;51.506;11.876;2024-01-15T04:23:00;2.20;77.80
14585;DHT22;7379;51.506;11.876;2024-01-15T04:25:28;2.20;77.80
14585;DHT22;7379;51.506;11.876;2024-01-15T04:27:54;2.20;77.70
14585;DHT22;7379;51.506;11.876;2024-01-15T04:30:21;2.20;78.50
14585;DHT22;7379;51.506;11.876;2024-01-15T04:32:48;2.20;77.80
14585;DHT22;7379;51.506;11.876;2024-01-15T04:35:15;2.20;77.80
14585;DHT22;7379;51.506;11.876;2024-01-15T04:37:42;2.20;77.80
14585;DHT22;7379;51.506;11.876;2024-01-15T04:40:09;2.10;77.70
14585;DHT22;7379;51.506;11.876;2024-01-15T04:42:38;2.10;77.70
14585;DHT22;7379;51.506;11.876;2024-01-15T04:45:05;2.20;77.80
14585;DHT22;7379;51.506;11.876;2024-01-15T04:47:32;2.20;77.70
14585;DHT22;7379;51.506;11.876;2024-01-15T04:49:58;2.10;77.60
14585;DHT22;7379;51.506;11.876;2024-01-15T04:52:25;2.20;77.70
14585;DHT22;7379;51.506;11.876;2024-01-15T04:54:52;2.10;77.50
14585;DHT22;7379;51.506;11.876;2024-01-15T04:57:19;2.10;77.60
14585;DHT22;7379;51.506;11.876;2024-01-15T04:59:47;2.20;78.40
14585;DHT22;7379;51.506;11.876;2024-01-15T05:02:13;2.10;77.50
14585;DHT22;7379;51.506;11.876;2024-01-15T05:04:41;2.20;77.50
14585;DHT22;7379;51.506;11.876;2024-01-15T05:07:07;2.20;77.40
14585;DHT22;7379;51.506;11.876;2024-01-15T05:09:34;2.20;77.40
14585;DHT22;7379;51.506;11.876;2024-01-15T05:12:01;2.20;77.40
14585;DHT22;7379;51.506;11.876;2024-01-15T05:14:28;2.10;77.20
14585;DHT22;7379;51.506;11.876;2024-01-15T05:16:56;2.20;77.30
14585;DHT22;7379;51.506;11.876;2024-01-15T05:19:23;2.10;77.20
14585;DHT22;7379;51.506;11.876;2024-01-15T05:21:50;2.10;77.20
14585;DHT22;7379;51.506;11.876;2024-01-15T05:24:16;2.10;77.20
14585;DHT22;7379;51.506;11.876;2024-01-15T05:26:43;2.10;77.10
14585;DHT22;7379;51.506;11.876;2024-01-15T05:29:10;2.20;77.20
14585;DHT22;7379;51.506;11.876;2024-01-15T05:31:37;2.10;77.10
14585;DHT22;7379;51.506;11.876;2024-01-15T05:34:05;2.10;77.10
14585;DHT22;7379;51.506;11.876;2024-01-15T05:36:31;2.10;77.00
14585;DHT22;7379;51.506;11.876;2024-01-15T05:38:57;2.20;77.10
14585;DHT22;7379;51.506;11.876;2024-01-15T05:41:24;2.10;77.00
14585;DHT22;7379;51.506;11.876;2024-01-15T05:43:51;2.10;77.00
14585;DHT22;7379;51.506;11.876;2024-01-15T05:46:18;2.20;77.10
14585;DHT22;7379;51.506;11.876;2024-01-15T05:48:45;2.10;77.00
14585;DHT22;7379;51.506;11.876;2024-01-15T05:51:13;2.10;77.00
14585;DHT22;7379;51.506;11.876;2024-01-15T05:53:40;2.10;77.00
14585;DHT22;7379;51.506;11.876;2024-01-15T05:56:08;2.10;77.00
14585;DHT22;7379;51.506;11.876;2024-01-15T05:58:36;2.10;77.00
14585;DHT22;7379;51.506;11.876;2024-01-15T06:01:03;2.10;77.00
14585;DHT22;7379;51.506;11.876;2024-01-15T06:03:30;2.10;77.00
14585;DHT22;7379;51.506;11.876;2024-01-15T06:05:56;2.10;77.00
14585;DHT22;7379;51.506;11.876;2024-01-15T06:08:25;2.10;77.00
14585;DHT22;7379;51.506;11.876;2024-01-15T06:10:53;2.10;77.00
14585;DHT22;7379;51.506;11.876;2024-01-15T06:13:19;2.10;77.00
14585;DHT22;7379;51.506;11.876;2024-01-15T06:15:46;2.10;77.10
14585;DHT22;7379;51.506;11.876;2024-01-15T06:18:13;2.10;77.10
14585;DHT22;7379;51.506;11.876;2024-01-15T06:20:40;2.10;77.10
14585;DHT22;7379;51.506;11.876;2024-01-15T06:23:07;2.10;77.10
14585;DHT22;7379;51.506;11.876;2024-01-15T06:25:35;2.10;77.10
14585;DHT22;7379;51.506;11.876;2024-01-15T06:28:01;2.10;77.10
14585;DHT22;7379;51.506;11.876;2024-01-15T06:30:30;2.10;77.00
14585;DHT22;7379;51.506;11.876;2024-01-15T06:32:57;2.10;77.00
14585;DHT22;7379;51.506;11.876;2024-01-15T06:35:23;2.10;77.00
14585;DHT22;7379;51.506;11.876;2024-01-15T06:37:50;2.10;77.00
14585;DHT22;7379;51.506;11.876;2024-01-15T06:40:17;2.10;77.00
14585;DHT22;7379;51.506;11.876;2024-01-15T06:42:45;2.10;77.00
14585;DHT22;7379;51.506;11.876;2024-01-15T06:45:12;2.10;77.00
14585;DHT22;7379;51.506;11.876;2024-01-15T06:47:39;2.10;77.00
14585;DHT22;7379;51.506;11.876;2024-01-15T06:50:06;2.10;76.90
14585;DHT22;7379;51.506;11.876;2024-01-15T06:52:32;2.10;77.00
14585;DHT22;7379;51.506;11.876;2024-01-15T06:54:59;2.10;77.00
14585;DHT22;7379;51.506;11.876;2024-01-15T06:57:26;2.10;77.00
14585;DHT22;7379;51.506;11.876;2024-01-15T06:59:54;2.10;77.00
14585;DHT22;7379;51.506;11.876;2024-01-15T07:02:21;2.10;77.00
14585;DHT22;7379;51.506;11.876;2024-01-15T07:04:48;2.10;77.00
14585;DHT22;7379;51.506;11.876;2024-01-15T07:07:14;2.10;77.00
14585;DHT22;7379;51.506;11.876;2024-01-15T07:09:41;2.10;77.00
14585;DHT22;7379;51.506;11.876;2024-01-15T07:12:08;2.10;77.00
14585;DHT22;7379;51.506;11.876;2024-01-15T07:14:35;2.10;77.00
14585;DHT22;7379;51.506;11.876;2024-01-15T07:17:03;2.10;77.80
14585;DHT22;7379;51.506;11.876;2024-01-15T07:19:30;2.10;77.00
14585;DHT22;7379;51.506;11.876;2024-01-15T07:21:57;2.10;77.10
14585;DHT22;7379;51.506;11.876;2024-01-15T07:24:23;2.10;77.00
14585;DHT22;7379;51.506;11.876;2024-01-15T07:26:50;2.10;77.00
14585;DHT22;7379;51.506;11.876;2024-01-15T07:29:17;2.10;77.00
14585;DHT22;7379;51.506;11.876;2024-01-15T07:31:48;2.10;77.00
14585;DHT22;7379;51.506;11.876;2024-01-15T07:34:16;2.10;77.30
14585;DHT22;7379;51.506;11.876;2024-01-15T07:36:44;2.10;77.00
14585;DHT22;7379;51.506;11.876;2024-01-15T07:39:10;2.10;77.10
14585;DHT22;7379;51.506;11.876;2024-01-15T07:41:37;2.10;77.00
14585;DHT22;7379;51.506;11.876;2024-01-15T07:44:05;2.00;77.00
14585;DHT22;7379;51.506;11.876;2024-01-15T07:46:32;2.00;76.90
14585;DHT22;7379;51.506;11.876;2024-01-15T07:48:58;2.10;77.10
14585;DHT22;7379;51.506;11.876;2024-01-15T07:51:27;2.00;77.00
14585;DHT22;7379;51.506;11.876;2024-01-15T07:53:54;2.00;77.00
14585;DHT22;7379;51.506;11.876;2024-01-15T07:56:21;2.00;77.00
14585;DHT22;7379;51.506;11.876;2024-01-15T07:58:48;2.00;77.00
14585;DHT22;7379;51.506;11.876;2024-01-15T08:01:15;2.00;77.00
14585;DHT22;7379;51.506;11.876;2024-01-15T08:03:41;2.00;76.90
14585;DHT22;7379;51.506;11.876;2024-01-15T08:06:08;2.10;77.00
14585;DHT22;7379;51.506;11.876;2024-01-15T08:08:37;2.10;77.00
14585;DHT22;7379;51.506;11.876;2024-01-15T08:11:04;2.10;77.00
14585;DHT22;7379;51.506;11.876;2024-01-15T08:13:31;2.10;76.90
14585;DHT22;7379;51.506;11.876;2024-01-15T08:15:58;2.00;76.90
14585;DHT22;7379;51.506;11.876;2024-01-15T08:18:25;2.00;76.90
14585;DHT22;7379;51.506;11.876;2024-01-15T08:20:52;2.00;76.90
14585;DHT22;7379;51.506;11.876;2024-01-15T08:23:19;2.10;77.00
14585;DHT22;7379;51.506;11.876;2024-01-15T08:25:48;2.00;77.00
14585;DHT22;7379;51.506;11.876;2024-01-15T08:28:16;2.10;77.80
14585;DHT22;7379;51.506;11.876;2024-01-15T08:30:43;2.00;77.00
14585;DHT22;7379;51.506;11.876;2024-01-15T08:33:09;2.10;77.10
14585;DHT22;7379;51.506;11.876;2024-01-15T08:35:36;2.00;77.00
14585;DHT22;7379;51.506;11.876;2024-01-15T08:38:03;2.00;77.00
14585;DHT22;7379;51.506;11.876;2024-01-15T08:40:30;2.10;77.10
14585;DHT22;7379;51.506;11.876;2024-01-15T08:43:04;2.10;77.10
14585;DHT22;7379;51.506;11.876;2024-01-15T08:45:32;2.10;77.10
14585;DHT22;7379;51.506;11.876;2024-01-15T08:47:59;2.00;76.90
14585;DHT22;7379;51.506;11.876;2024-01-15T08:50:26;2.00;76.90
14585;DHT22;7379;51.506;11.876;2024-01-15T08:52:53;2.10;77.00
14585;DHT22;7379;51.506;11.876;2024-01-15T08:55:20;2.00;76.90
14585;DHT22;7379;51.506;11.876;2024-01-15T08:57:47;2.00;76.90
14585;DHT22;7379;51.506;11.876;2024-01-15T09:00:18;2.10;77.10
14585;DHT22;7379;51.506;11.876;2024-01-15T09:02:45;2.00;76.90
14585;DHT22;7379;51.506;11.876;2024-01-15T09:05:12;2.00;77.00
14585;DHT22;7379;51.506;11.876;2024-01-15T09:07:39;2.00;77.00
14585;DHT22;7379;51.506;11.876;2024-01-15T09:10:06;2.00;77.00
14585;DHT22;7379;51.506;11.876;2024-01-15T09:12:33;2.00;77.00
14585;DHT22;7379;51.506;11.876;2024-01-15T09:15:00;2.00;77.00
14585;DHT22;7379;51.506;11.876;2024-01-15T09:17:31;2.00;76.90
14585;DHT22;7379;51.506;11.876;2024-01-15T09:19:58;2.00;76.90
14585;DHT22;7379;51.506;11.876;2024-01-15T09:22:25;2.10;77.00
14585;DHT22;7379;51.506;11.876;2024-01-15T09:24:52;2.10;76.90
14585;DHT22;7379;51.506;11.876;2024-01-15T09:27:19;2.00;76.90
14585;DHT22;7379;51.506;11.876;2024-01-15T09:29:46;2.10;76.90
14585;DHT22;7379;51.506;11.876;2024-01-15T09:32:12;2.10;77.60
14585;DHT22;7379;51.506;11.876;2024-01-15T09:34:41;2.10;76.90
14585;DHT22;7379;51.506;11.876;2024-01-15T09:37:07;2.10;76.90
14585;DHT22;7379;51.506;11.876;2024-01-15T09:39:35;2.10;76.80
14585;DHT22;7379;51.506;11.876;2024-01-15T09:42:02;2.10;76.80
14585;DHT22;7379;51.506;11.876;2024-01-15T09:44:29;2.10;76.90
14585;DHT22;7379;51.506;11.876;2024-01-15T09:46:57;2.10;76.90
14585;DHT22;7379;51.506;11.876;2024-01-15T09:49:24;2.10;76.80
14585;DHT22;7379;51.506;11.876;2024-01-15T09:51:53;2.10;76.80
14585;DHT22;7379;51.506;11.876;2024-01-15T09:54:21;2.10;76.90
14585;DHT22;7379;51.506;11.876;2024-01-15T09:56:47;2.10;76.80
14585;DHT22;7379;51.506;11.876;2024-01-15T09:59:15;2.10;76.80
14585;DHT22;7379;51.506;11.876;2024-01-15T10:01:43;2.10;76.70
14585;DHT22;7379;51.506;11.876;2024-01-15T10:04:10;2.10;76.70
14585;DHT22;7379;51.506;11.876;2024-01-15T10:06:38;2.10;76.70
14585;DHT22;7379;51.506;11.876;2024-01-15T10:09:07;2.10;76.70
14585;DHT22;7379;51.506;11.876;2024-01-15T10:11:34;2.10;76.70
14585;DHT22;7379;51.506;11.876;2024-01-15T10:14:01;2.10;76.60
14585;DHT22;7379;51.506;11.876;2024-01-15T10:16:28;2.10;76.60
14585;DHT22;7379;51.506;11.876;2024-01-15T10:18:55;2.10;76.70
14585;DHT22;7379;51.506;11.876;2024-01-15T10:21:21;2.10;76.70
14585;DHT22;7379;51.506;11.876;2024-01-15T10:23:49;2.10;76.80
14585;DHT22;7379;51.506;11.876;2024-01-15T10:26:17;2.10;76.80
14585;DHT22;7379;51.506;11.876;2024-01-15T10:28:44;2.10;76.70
14585;DHT22;7379;51.506;11.876;2024-01-15T10:31:11;2.10;76.70
14585;DHT22;7379;51.506;11.876;2024-01-15T10:33:38;2.10;76.70
14585;DHT22;7379;51.506;11.876;2024-01-15T10:36:09;2.10;76.80
14585;DHT22;7379;51.506;11.876;2024-01-15T10:38:37;2.10;76.80
14585;DHT22;7379;51.506;11.876;2024-01-15T10:41:04;2.10;76.80
14585;DHT22;7379;51.506;11.876;2024-01-15T10:43:32;2.10;76.80
14585;DHT22;7379;51.506;11.876;2024-01-15T10:46:00;2.10;76.80
14585;DHT22;7379;51.506;11.876;2024-01-15T10:48:27;2.20;76.90
14585;DHT22;7379;51.506;11.876;2024-01-15T10:50:56;2.10;76.80
14585;DHT22;7379;51.506;11.876;2024-01-15T10:53:23;2.20;76.90
14585;DHT22;7379;51.506;11.876;2024-01-15T10:55:50;2.20;77.50
14585;DHT22;7379;51.506;11.876;2024-01-15T10:58:18;2.20;76.80
14585;DHT22;7379;51.506;11.876;2024-01-15T11:00:49;2.20;76.80
14585;DHT22;7379;51.506;11.876;2024-01-15T11:03:16;2.20;76.80
14585;DHT22;7379;51.506;11.876;2024-01-15T11:05:46;2.20;76.80
14585;DHT22;7379;51.506;11.876;2024-01-15T11:08:13;2.20;76.80
14585;DHT22;7379;51.506;11.876;2024-01-15T11:10:44;2.20;76.80
14585;DHT22;7379;51.506;11.876;2024-01-15T11:13:19;2.20;76.90
14585;DHT22;7379;51.506;11.876;2024-01-15T11:16:00;2.20;76.80
14585;DHT22;7379;51.506;11.876;2024-01-15T11:18:28;2.20;76.80
14585;DHT22;7379;51.506;11.876;2024-01-15T11:21:21;2.20;76.70
14585;DHT22;7379;51.506;11.876;2024-01-15T11:23:49;2.20;76.70
14585;DHT22;7379;51.506;11.876;2024-01-15T11:26:33;2.20;76.70
14585;DHT22;7379;51.506;11.876;2024-01-15T11:29:01;2.20;76.70
14585;DHT22;7379;51.506;11.876;2024-01-15T11:31:58;2.20;76.80
14585;DHT22;7379;51.506;11.876;2024-01-15T11:34:54;2.20;76.80
14585;DHT22;7379;51.506;11.876;2024-01-15T11:37:24;2.20;76.90
14585;DHT22;7379;51.506;11.876;2024-01-15T11:39:52;2.20;76.90
14585;DHT22;7379;51.506;11.876;2024-01-15T11:42:20;2.20;76.90
14585;DHT22;7379;51.506;11.876;2024-01-15T11:44:47;2.20;77.00
14585;DHT22;7379;51.506;11.876;2024-01-15T11:47:16;2.20;77.00
14585;DHT22;7379;51.506;11.876;2024-01-15T11:50:00;2.20;77.00
14585;DHT22;7379;51.506;11.876;2024-01-15T11:52:32;2.30;77.10
14585;DHT22;7379;51.506;11.876;2024-01-15T11:55:16;2.30;77.10
14585;DHT22;7379;51.506;11.876;2024-01-15T11:57:46;2.30;77.10
14585;DHT22;7379;51.506;11.876;2024-01-15T12:00:13;2.30;77.10
14585;DHT22;7379;51.506;11.876;2024-01-15T12:02:43;2.30;77.10
14585;DHT22;7379;51.506;11.876;2024-01-15T12:05:11;2.30;77.10
14585;DHT22;7379;51.506;11.876;2024-01-15T12:07:38;2.30;77.20
14585;DHT22;7379;51.506;11.876;2024-01-15T12:10:09;2.30;77.20
14585;DHT22;7379;51.506;11.876;2024-01-15T12:12:54;2.30;77.30
14585;DHT22;7379;51.506;11.876;2024-01-15T12:15:23;2.30;77.30
14585;DHT22;7379;51.506;11.876;2024-01-15T12:17:51;2.30;77.30
14585;DHT22;7379;51.506;11.876;2024-01-15T12:20:18;2.30;77.20
14585;DHT22;7379;51.506;11.876;2024-01-15T12:22:45;2.30;77.30
14585;DHT22;7379;51.506;11.876;2024-01-15T12:25:12;2.30;77.30
14585;DHT22;7379;51.506;11.876;2024-01-15T12:27:40;2.30;77.20
14585;DHT22;7379;51.506;11.876;2024-01-15T12:30:09;2.30;77.10
14585;DHT22;7379;51.506;11.876;2024-01-15T12:32:36;2.30;77.20
14585;DHT22;7379;51.506;11.876;2024-01-15T12:35:05;2.30;77.10
14585;DHT22;7379;51.506;11.876;2024-01-15T12:37:34;2.30;77.10
14585;DHT22;7379;51.506;11.876;2024-01-15T12:40:01;2.30;77.10
14585;DHT22;7379;51.506;11.876;2024-01-15T12:42:28;2.30;77.00
14585;DHT22;7379;51.506;11.876;2024-01-15T12:44:56;2.30;77.00
14585;DHT22;7379;51.506;11.876;2024-01-15T12:47:23;2.30;77.00
14585;DHT22;7379;51.506;11.876;2024-01-15T12:49:51;2.30;77.00
14585;DHT22;7379;51.506;11.876;2024-01-15T12:52:21;2.30;77.00
14585;DHT22;7379;51.506;11.876;2024-01-15T12:54:48;2.40;77.10
14585;DHT22;7379;51.506;11.876;2024-01-15T12:57:15;2.40;77.10
14585;DHT22;7379;51.506;11.876;2024-01-15T12:59:42;2.40;77.10
14585;DHT22;7379;51.506;11.876;2024-01-15T13:02:09;2.40;77.00
14585;DHT22;7379;51.506;11.876;2024-01-15T13:04:37;2.50;77.00
14585;DHT22;7379;51.506;11.876;2024-01-15T13:07:04;2.50;77.70
14585;DHT22;7379;51.506;11.876;2024-01-15T13:09:32;2.40;77.00
14585;DHT22;7379;51.506;11.876;2024-01-15T13:12:00;2.50;77.20
14585;DHT22;7379;51.506;11.876;2024-01-15T13:14:27;2.40;77.10
14585;DHT22;7379;51.506;11.876;2024-01-15T13:16:54;2.50;77.20
14585;DHT22;7379;51.506;11.876;2024-01-15T13:19:22;2.50;77.20
14585;DHT22;7379;51.506;11.876;2024-01-15T13:21:49;2.50;77.30
14585;DHT22;7379;51.506;11.876;2024-01-15T13:24:16;2.50;77.30
14585;DHT22;7379;51.506;11.876;2024-01-15T13:26:44;2.50;77.30
14585;DHT22;7379;51.506;11.876;2024-01-15T13:29:13;2.50;77.30
14585;DHT22;7379;51.506;11.876;2024-01-15T13:31:40;2.50;77.30
14585;DHT22;7379;51.506;11.876;2024-01-15T13:34:07;2.50;77.30
14585;DHT22;7379;51.506;11.876;2024-01-15T13:36:34;2.50;77.20
14585;DHT22;7379;51.506;11.876;2024-01-15T13:39:01;2.50;77.10
14585;DHT22;7379;51.506;11.876;2024-01-15T13:41:28;2.50;76.90
14585;DHT22;7379;51.506;11.876;2024-01-15T13:43:56;2.60;76.90
14585;DHT22;7379;51.506;11.876;2024-01-15T13:46:25;2.60;76.70
14585;DHT22;7379;51.506;11.876;2024-01-15T13:48:53;2.50;76.60
14585;DHT22;7379;51.506;11.876;2024-01-15T13:51:22;2.50;76.70
14585;DHT22;7379;51.506;11.876;2024-01-15T13:53:49;2.50;76.60
14585;DHT22;7379;51.506;11.876;2024-01-15T13:56:16;2.50;76.60
14585;DHT22;7379;51.506;11.876;2024-01-15T13:58:43;2.50;76.60
14585;DHT22;7379;51.506;11.876;2024-01-15T14:01:11;2.50;76.60
14585;DHT22;7379;51.506;11.876;2024-01-15T14:03:38;2.50;76.70
14585;DHT22;7379;51.506;11.876;2024-01-15T14:06:05;2.50;76.70
14585;DHT22;7379;51.506;11.876;2024-01-15T14:08:34;2.50;76.60
14585;DHT22;7379;51.506;11.876;2024-01-15T14:11:02;2.50;76.60
14585;DHT22;7379;51.506;11.876;2024-01-15T14:13:29;2.50;76.60
14585;DHT22;7379;51.506;11.876;2024-01-15T14:15:55;2.50;76.60
14585;DHT22;7379;51.506;11.876;2024-01-15T14:18:23;2.50;76.50
14585;DHT22;7379;51.506;11.876;2024-01-15T14:20:51;2.50;76.50
14585;DHT22;7379;51.506;11.876;2024-01-15T14:23:19;2.50;76.40
14585;DHT22;7379;51.506;11.876;2024-01-15T14:25:45;2.50;76.30
14585;DHT22;7379;51.506;11.876;2024-01-15T14:28:12;2.50;76.30
14585;DHT22;7379;51.506;11.876;2024-01-15T14:30:39;2.50;76.30
14585;DHT22;7379;51.506;11.876;2024-01-15T14:33:06;2.50;76.20
14585;DHT22;7379;51.506;11.876;2024-01-15T14:35:34;2.50;76.10
14585;DHT22;7379;51.506;11.876;2024-01-15T14:38:00;2.50;76.10
14585;DHT22;7379;51.506;11.876;2024-01-15T14:40:28;2.60;76.10
14585;DHT22;7379;51.506;11.876;2024-01-15T14:42:55;2.50;76.00
14585;DHT22;7379;51.506;11.876;2024-01-15T14:45:21;2.50;76.00
14585;DHT22;7379;51.506;11.876;2024-01-15T14:47:48;2.60;76.10
14585;DHT22;7379;51.506;11.876;2024-01-15T14:50:15;2.50;76.00
14585;DHT22;7379;51.506;11.876;2024-01-15T14:52:43;2.60;76.10
14585;DHT22;7379;51.506;11.876;2024-01-15T14:55:11;2.50;76.00
14585;DHT22;7379;51.506;11.876;2024-01-15T14:57:38;2.50;76.00
14585;DHT22;7379;51.506;11.876;2024-01-15T15:00:06;2.50;76.00
14585;DHT22;7379;51.506;11.876;2024-01-15T15:02:35;2.50;76.10
14585;DHT22;7379;51.506;11.876;2024-01-15T15:05:03;2.50;76.10
14585;DHT22;7379;51.506;11.876;2024-01-15T15:07:30;2.50;76.20
14585;DHT22;7379;51.506;11.876;2024-01-15T15:09:58;2.50;76.20
14585;DHT22;7379;51.506;11.876;2024-01-15T15:12:24;2.50;76.20
14585;DHT22;7379;51.506;11.876;2024-01-15T15:14:52;2.50;76.20
14585;DHT22;7379;51.506;11.876;2024-01-15T15:17:19;2.50;76.20
14585;DHT22;7379;51.506;11.876;2024-01-15T15:19:46;2.50;76.20
14585;DHT22;7379;51.506;11.876;2024-01-15T15:22:12;2.50;76.30
14585;DHT22;7379;51.506;11.876;2024-01-15T15:24:39;2.50;76.30
14585;DHT22;7379;51.506;11.876;2024-01-15T15:27:08;2.50;76.30
14585;DHT22;7379;51.506;11.876;2024-01-15T15:29:35;2.50;76.30
14585;DHT22;7379;51.506;11.876;2024-01-15T15:32:02;2.50;76.30
14585;DHT22;7379;51.506;11.876;2024-01-15T15:34:29;2.50;76.30
14585;DHT22;7379;51.506;11.876;2024-01-15T15:36:55;2.50;76.40
14585;DHT22;7379;51.506;11.876;2024-01-15T15:39:22;2.50;76.40
14585;DHT22;7379;51.506;11.876;2024-01-15T15:41:50;2.50;76.40
14585;DHT22;7379;51.506;11.876;2024-01-15T15:44:18;2.50;76.40
14585;DHT22;7379;51.506;11.876;2024-01-15T15:46:45;2.50;76.40